sensor_id;sensor_type;location;lat;lon;timestamp;pressure;altitude;pressure_sealevel;temperature;humidity
41106;BME280;74159;52.530;13.188;2024-03-02T00:01:04;100214.03;;;7.15;82.57
41106;BME280;74159;52.530;13.188;2024-03-02T00:03:30;100209.44;;;7.26;82.35
41106;BME280;74159;52.530;13.188;2024-03-02T00:05:55;100216.53;;;7.16;82.79
41106;BME280;74159;52.530;13.188;2024-03-02T00:08:23;100210.72;;;7.13;82.68
41106;BME280;74159;52.530;13.188;2024-03-02T00:10:50;100215.22;;;7.24;82.59
41106;BME280;74159;52.530;13.188;2024-03-02T00:13:15;100211.25;;;7.10;82.97
41106;BME280;74159;52.530;13.188;2024-03-02T00:15:51;100211.25;;;7.10;83.05
41106;BME280;74159;52.530;13.188;2024-03-02T00:18:30;100208.72;;;7.03;83.19
41106;BME280;74159;52.530;13.188;2024-03-02T00:20:57;100206.78;;;6.99;83.53
41106;BME280;74159;52.530;13.188;2024-03-02T00:23:23;100207.34;;;7.01;83.41
41106;BME280;74159;52.530;13.188;2024-03-02T00:25:51;100205.41;;;6.96;83.86
41106;BME280;74159;52.530;13.188;2024-03-02T00:28:24;100200.19;;;7.00;83.86
41106;BME280;74159;52.530;13.188;2024-03-02T00:35:57;100203.50;;;7.02;83.81
41106;BME280;74159;52.530;13.188;2024-03-02T00:38:22;100200.81;;;7.07;83.92
41106;BME280;74159;52.530;13.188;2024-03-02T00:40:48;100206.31;;;7.07;84.38
41106;BME280;74159;52.530;13.188;2024-03-02T00:45:54;100204.22;;;7.29;83.62
41106;BME280;74159;52.530;13.188;2024-03-02T00:48:19;100201.41;;;7.19;83.76
41106;BME280;74159;52.530;13.188;2024-03-02T00:50:45;100194.81;;;7.20;83.95
41106;BME280;74159;52.530;13.188;2024-03-02T00:53:12;100194.06;;;7.30;84.07
41106;BME280;74159;52.530;13.188;2024-03-02T00:55:38;100190.97;;;7.21;84.58
41106;BME280;74159;52.530;13.188;2024-03-02T00:58:04;100190.66;;;7.12;85.03
41106;BME280;74159;52.530;13.188;2024-03-02T01:00:30;100194.78;;;7.10;85.05
41106;BME280;74159;52.530;13.188;2024-03-02T01:02:55;100187.63;;;7.14;85.16
41106;BME280;74159;52.530;13.188;2024-03-02T01:05:20;100190.31;;;7.04;85.43
41106;BME280;74159;52.530;13.188;2024-03-02T01:07:46;100194.47;;;7.06;85.65
41106;BME280;74159;52.530;13.188;2024-03-02T01:10:12;100197.50;;;7.10;85.38
41106;BME280;74159;52.530;13.188;2024-03-02T01:12:37;100196.88;;;6.98;85.81
41106;BME280;74159;52.530;13.188;2024-03-02T01:15:03;100193.66;;;7.06;85.79
41106;BME280;74159;52.530;13.188;2024-03-02T01:17:31;100185.44;;;7.16;85.52
41106;BME280;74159;52.530;13.188;2024-03-02T01:19:56;100182.16;;;7.19;85.48
41106;BME280;74159;52.530;13.188;2024-03-02T01:22:22;100174.50;;;7.26;85.24
41106;BME280;74159;52.530;13.188;2024-03-02T01:24:50;100175.59;;;7.25;85.58
41106;BME280;74159;52.530;13.188;2024-03-02T01:27:16;100186.34;;;7.32;85.12
41106;BME280;74159;52.530;13.188;2024-03-02T01:29:41;100190.97;;;7.21;85.84
41106;BME280;74159;52.530;13.188;2024-03-02T01:32:07;100178.03;;;7.21;85.74
41106;BME280;74159;52.530;13.188;2024-03-02T01:34:32;100171.78;;;7.36;85.61
41106;BME280;74159;52.530;13.188;2024-03-02T01:36:57;100167.66;;;7.34;85.33
41106;BME280;74159;52.530;13.188;2024-03-02T01:39:22;100158.09;;;7.41;85.13
41106;BME280;74159;52.530;13.188;2024-03-02T01:41:48;100160.78;;;7.36;85.69
41106;BME280;74159;52.530;13.188;2024-03-02T01:44:13;100165.72;;;7.29;86.01
41106;BME280;74159;52.530;13.188;2024-03-02T01:46:39;100161.81;;;7.20;86.71
41106;BME280;74159;52.530;13.188;2024-03-02T01:49:06;100153.00;;;7.18;86.63
41106;BME280;74159;52.530;13.188;2024-03-02T01:51:31;100151.88;;;7.14;86.81
41106;BME280;74159;52.530;13.188;2024-03-02T01:53:57;100148.88;;;7.20;86.88
41106;BME280;74159;52.530;13.188;2024-03-02T01:56:22;100156.03;;;7.21;87.02
41106;BME280;74159;52.530;13.188;2024-03-02T01:58:48;100152.47;;;7.21;87.18
41106;BME280;74159;52.530;13.188;2024-03-02T02:01:13;100148.06;;;7.20;87.07
41106;BME280;74159;52.530;13.188;2024-03-02T02:03:39;100144.75;;;7.18;87.12
41106;BME280;74159;52.530;13.188;2024-03-02T02:06:05;100142.88;;;7.23;86.89
41106;BME280;74159;52.530;13.188;2024-03-02T02:08:32;100148.09;;;7.25;86.47
41106;BME280;74159;52.530;13.188;2024-03-02T02:10:57;100141.47;;;7.21;86.81
41106;BME280;74159;52.530;13.188;2024-03-02T02:13:23;100133.47;;;7.14;86.96
41106;BME280;74159;52.530;13.188;2024-03-02T02:15:49;100138.16;;;7.19;86.99
41106;BME280;74159;52.530;13.188;2024-03-02T02:18:15;100128.03;;;7.24;86.70
41106;BME280;74159;52.530;13.188;2024-03-02T02:20:41;100123.59;;;7.18;86.86
41106;BME280;74159;52.530;13.188;2024-03-02T02:23:06;100126.88;;;7.20;86.58
41106;BME280;74159;52.530;13.188;2024-03-02T02:25:33;100127.66;;;7.06;86.95
41106;BME280;74159;52.530;13.188;2024-03-02T02:27:59;100118.00;;;7.03;87.40
41106;BME280;74159;52.530;13.188;2024-03-02T02:30:26;100121.03;;;7.02;87.34
41106;BME280;74159;52.530;13.188;2024-03-02T02:32:52;100129.31;;;7.07;86.88
41106;BME280;74159;52.530;13.188;2024-03-02T02:35:18;100117.19;;;7.03;87.04
41106;BME280;74159;52.530;13.188;2024-03-02T02:37:45;100126.69;;;6.85;87.92
41106;BME280;74159;52.530;13.188;2024-03-02T02:40:11;100124.50;;;6.87;87.86
41106;BME280;74159;52.530;13.188;2024-03-02T02:42:38;100123.75;;;6.97;87.31
41106;BME280;74159;52.530;13.188;2024-03-02T02:45:04;100118.25;;;6.97;87.16
41106;BME280;74159;52.530;13.188;2024-03-02T02:47:29;100121.00;;;6.97;87.80
41106;BME280;74159;52.530;13.188;2024-03-02T02:49:55;100121.84;;;6.97;87.95
41106;BME280;74159;52.530;13.188;2024-03-02T02:52:20;100125.97;;;7.05;87.60
41106;BME280;74159;52.530;13.188;2024-03-02T02:54:46;100124.03;;;7.00;87.71
41106;BME280;74159;52.530;13.188;2024-03-02T02:57:11;100124.31;;;7.04;87.65
41106;BME280;74159;52.530;13.188;2024-03-02T02:59:37;100122.69;;;7.03;87.62
41106;BME280;74159;52.530;13.188;2024-03-02T03:02:02;100123.00;;;7.06;87.89
41106;BME280;74159;52.530;13.188;2024-03-02T03:04:28;100129.28;;;7.02;87.43
41106;BME280;74159;52.530;13.188;2024-03-02T03:06:53;100122.63;;;6.92;88.30
41106;BME280;74159;52.530;13.188;2024-03-02T03:09:18;100130.88;;;6.92;88.88
41106;BME280;74159;52.530;13.188;2024-03-02T03:11:44;100127.13;;;7.09;88.30
41106;BME280;74159;52.530;13.188;2024-03-02T03:14:09;100130.69;;;7.09;89.18
41106;BME280;74159;52.530;13.188;2024-03-02T03:16:34;100126.81;;;7.05;89.23
41106;BME280;74159;52.530;13.188;2024-03-02T03:19:00;100124.94;;;7.11;89.52
41106;BME280;74159;52.530;13.188;2024-03-02T03:21:25;100120.56;;;7.20;89.45
41106;BME280;74159;52.530;13.188;2024-03-02T03:23:50;100123.34;;;7.25;89.59
41106;BME280;74159;52.530;13.188;2024-03-02T03:26:16;100123.31;;;7.20;90.02
41106;BME280;74159;52.530;13.188;2024-03-02T03:28:41;100126.63;;;7.22;90.10
41106;BME280;74159;52.530;13.188;2024-03-02T03:31:07;100128.31;;;7.28;90.22
41106;BME280;74159;52.530;13.188;2024-03-02T03:33:32;100122.81;;;7.28;90.06
41106;BME280;74159;52.530;13.188;2024-03-02T03:35:57;100127.50;;;7.33;90.20
41106;BME280;74159;52.530;13.188;2024-03-02T03:38:23;100133.84;;;7.38;90.00
41106;BME280;74159;52.530;13.188;2024-03-02T03:40:48;100128.38;;;7.43;90.04
41106;BME280;74159;52.530;13.188;2024-03-02T03:43:13;100120.13;;;7.43;89.90
41106;BME280;74159;52.530;13.188;2024-03-02T03:45:39;100124.53;;;7.44;90.14
41106;BME280;74159;52.530;13.188;2024-03-02T03:48:04;100127.28;;;7.49;90.01
41106;BME280;74159;52.530;13.188;2024-03-02T03:50:30;100130.59;;;7.46;90.29
41106;BME280;74159;52.530;13.188;2024-03-02T03:52:55;100122.31;;;7.46;90.42
41106;BME280;74159;52.530;13.188;2024-03-02T03:55:20;100128.38;;;7.43;90.48
41106;BME280;74159;52.530;13.188;2024-03-02T03:57:46;100127.84;;;7.51;90.17
41106;BME280;74159;52.530;13.188;2024-03-02T04:00:11;100128.13;;;7.50;90.57
41106;BME280;74159;52.530;13.188;2024-03-02T04:02:37;100135.03;;;7.58;90.37
41106;BME280;74159;52.530;13.188;2024-03-02T04:05:03;100140.50;;;7.52;89.98
41106;BME280;74159;52.530;13.188;2024-03-02T04:07:34;100136.97;;;7.62;90.13
41106;BME280;74159;52.530;13.188;2024-03-02T04:10:04;100148.75;;;7.47;90.47
41106;BME280;74159;52.530;13.188;2024-03-02T04:12:33;100139.44;;;7.64;89.91
41106;BME280;74159;52.530;13.188;2024-03-02T04:14:59;100152.66;;;7.62;89.87
41106;BME280;74159;52.530;13.188;2024-03-02T04:17:24;100143.34;;;7.73;89.53
41106;BME280;74159;52.530;13.188;2024-03-02T04:19:49;100144.72;;;7.85;89.08
41106;BME280;74159;52.530;13.188;2024-03-02T04:22:15;100147.09;;;7.46;89.95
41106;BME280;74159;52.530;13.188;2024-03-02T04:24:40;100152.03;;;7.44;90.26
41106;BME280;74159;52.530;13.188;2024-03-02T04:27:05;100156.16;;;7.47;90.60
41106;BME280;74159;52.530;13.188;2024-03-02T04:29:31;100154.56;;;7.56;90.54
41106;BME280;74159;52.530;13.188;2024-03-02T04:31:56;100146.53;;;7.44;90.40
41106;BME280;74159;52.530;13.188;2024-03-02T04:34:21;100156.44;;;7.45;90.72
41106;BME280;74159;52.530;13.188;2024-03-02T04:36:47;100166.06;;;7.43;90.68
41106;BME280;74159;52.530;13.188;2024-03-02T04:39:12;100154.81;;;7.54;90.70
41106;BME280;74159;52.530;13.188;2024-03-02T04:41:38;100158.69;;;7.59;90.18
41106;BME280;74159;52.530;13.188;2024-03-02T04:44:03;100150.50;;;7.84;89.16
41106;BME280;74159;52.530;13.188;2024-03-02T04:46:28;100158.16;;;7.62;90.03
41106;BME280;74159;52.530;13.188;2024-03-02T04:48:54;100157.59;;;7.60;89.80
41106;BME280;74159;52.530;13.188;2024-03-02T04:51:22;100156.47;;;7.55;89.87
41106;BME280;74159;52.530;13.188;2024-03-02T04:53:47;100161.97;;;7.55;90.19
41106;BME280;74159;52.530;13.188;2024-03-02T04:56:13;100167.50;;;7.61;89.64
41106;BME280;74159;52.530;13.188;2024-03-02T04:58:56;100172.75;;;7.67;89.46
41106;BME280;74159;52.530;13.188;2024-03-02T05:01:22;100172.53;;;7.84;89.24
41106;BME280;74159;52.530;13.188;2024-03-02T05:03:47;100181.88;;;7.83;88.43
41106;BME280;74159;52.530;13.188;2024-03-02T05:06:12;100180.50;;;7.85;88.42
41106;BME280;74159;52.530;13.188;2024-03-02T05:08:38;100175.81;;;7.76;88.84
41106;BME280;74159;52.530;13.188;2024-03-02T05:11:03;100180.09;;;7.41;90.06
41106;BME280;74159;52.530;13.188;2024-03-02T05:13:51;100183.88;;;7.30;90.43
41106;BME280;74159;52.530;13.188;2024-03-02T05:16:17;100178.47;;;7.50;90.28
41106;BME280;74159;52.530;13.188;2024-03-02T05:18:42;100184.25;;;7.49;89.50
41106;BME280;74159;52.530;13.188;2024-03-02T05:21:07;100191.56;;;7.28;90.37
41106;BME280;74159;52.530;13.188;2024-03-02T05:23:33;100207.59;;;7.41;89.85
41106;BME280;74159;52.530;13.188;2024-03-02T05:25:58;100204.75;;;7.26;90.49
41106;BME280;74159;52.530;13.188;2024-03-02T05:28:24;100202.50;;;7.18;90.47
41106;BME280;74159;52.530;13.188;2024-03-02T05:30:49;100209.38;;;7.15;91.02
41106;BME280;74159;52.530;13.188;2024-03-02T05:33:15;100206.91;;;7.19;90.66
41106;BME280;74159;52.530;13.188;2024-03-02T05:35:40;100206.63;;;7.20;90.11
41106;BME280;74159;52.530;13.188;2024-03-02T05:38:05;100210.81;;;7.23;90.44
41106;BME280;74159;52.530;13.188;2024-03-02T05:40:31;100209.06;;;7.12;90.31
41106;BME280;74159;52.530;13.188;2024-03-02T05:42:56;100209.91;;;7.12;90.50
41106;BME280;74159;52.530;13.188;2024-03-02T05:45:21;100211.25;;;7.10;90.69
41106;BME280;74159;52.530;13.188;2024-03-02T05:47:47;100212.28;;;6.99;91.09
41106;BME280;74159;52.530;13.188;2024-03-02T05:50:12;100216.16;;;7.03;91.00
41106;BME280;74159;52.530;13.188;2024-03-02T05:52:37;100230.41;;;6.94;90.80
41106;BME280;74159;52.530;13.188;2024-03-02T05:55:04;100216.94;;;6.93;91.50
41106;BME280;74159;52.530;13.188;2024-03-02T05:57:30;100229.31;;;6.96;91.06
41106;BME280;74159;52.530;13.188;2024-03-02T06:00:18;100240.31;;;6.96;91.23
41106;BME280;74159;52.530;13.188;2024-03-02T06:02:43;100241.66;;;6.93;91.06
41106;BME280;74159;52.530;13.188;2024-03-02T06:05:08;100241.44;;;7.05;90.48
41106;BME280;74159;52.530;13.188;2024-03-02T06:07:34;100243.63;;;7.03;90.72
41106;BME280;74159;52.530;13.188;2024-03-02T06:09:59;100239.22;;;6.97;90.56
41106;BME280;74159;52.530;13.188;2024-03-02T06:12:25;100246.91;;;6.94;90.96
41106;BME280;74159;52.530;13.188;2024-03-02T06:14:50;100238.69;;;7.00;90.93
41106;BME280;74159;52.530;13.188;2024-03-02T06:17:15;100242.53;;;6.99;90.65
41106;BME280;74159;52.530;13.188;2024-03-02T06:19:41;100243.63;;;6.98;90.44
41106;BME280;74159;52.530;13.188;2024-03-02T06:22:06;100243.69;;;7.08;89.97
41106;BME280;74159;52.530;13.188;2024-03-02T06:24:36;100240.91;;;7.03;90.08
41106;BME280;74159;52.530;13.188;2024-03-02T06:27:01;100239.28;;;7.07;90.07
41106;BME280;74159;52.530;13.188;2024-03-02T06:29:27;100239.81;;;7.04;90.01
41106;BME280;74159;52.530;13.188;2024-03-02T06:31:52;100232.44;;;7.09;90.39
41106;BME280;74159;52.530;13.188;2024-03-02T06:34:17;100237.53;;;7.38;88.84
41106;BME280;74159;52.530;13.188;2024-03-02T06:36:43;100232.22;;;7.21;89.16
41106;BME280;74159;52.530;13.188;2024-03-02T06:39:09;100246.19;;;7.09;89.43
41106;BME280;74159;52.530;13.188;2024-03-02T06:41:35;100237.66;;;7.06;89.59
41106;BME280;74159;52.530;13.188;2024-03-02T06:44:00;100235.69;;;7.48;88.67
41106;BME280;74159;52.530;13.188;2024-03-02T06:46:26;100225.06;;;7.20;89.41
41106;BME280;74159;52.530;13.188;2024-03-02T06:48:51;100223.59;;;7.49;88.59
41106;BME280;74159;52.530;13.188;2024-03-02T06:51:16;100227.84;;;7.82;86.72
41106;BME280;74159;52.530;13.188;2024-03-02T06:53:42;100240.88;;;7.40;87.79
41106;BME280;74159;52.530;13.188;2024-03-02T06:56:07;100244.13;;;7.32;88.50
41106;BME280;74159;52.530;13.188;2024-03-02T06:58:35;100244.38;;;7.30;89.03
41106;BME280;74159;52.530;13.188;2024-03-02T07:01:01;100254.63;;;7.40;88.56
41106;BME280;74159;52.530;13.188;2024-03-02T07:03:26;100255.75;;;7.44;88.54
41106;BME280;74159;52.530;13.188;2024-03-02T07:05:51;100252.38;;;7.32;88.41
41106;BME280;74159;52.530;13.188;2024-03-02T07:08:17;100253.19;;;7.32;88.57
41106;BME280;74159;52.530;13.188;2024-03-02T07:10:42;100253.72;;;7.29;88.51
41106;BME280;74159;52.530;13.188;2024-03-02T07:13:07;100250.97;;;7.24;88.78
41106;BME280;74159;52.530;13.188;2024-03-02T07:15:33;100259.69;;;7.63;87.25
41106;BME280;74159;52.530;13.188;2024-03-02T07:18:17;100255.28;;;7.57;87.31
41106;BME280;74159;52.530;13.188;2024-03-02T07:20:42;100253.91;;;7.60;87.64
41106;BME280;74159;52.530;13.188;2024-03-02T07:23:07;100244.31;;;7.67;87.60
41106;BME280;74159;52.530;13.188;2024-03-02T07:25:34;100256.94;;;7.58;87.49
41106;BME280;74159;52.530;13.188;2024-03-02T07:27:59;100261.72;;;7.83;86.32
41106;BME280;74159;52.530;13.188;2024-03-02T07:30:25;100257.25;;;7.72;86.00
41106;BME280;74159;52.530;13.188;2024-03-02T07:32:50;100265.09;;;7.43;87.68
41106;BME280;74159;52.530;13.188;2024-03-02T07:35:16;100269.25;;;7.45;87.36
41106;BME280;74159;52.530;13.188;2024-03-02T07:37:42;100278.22;;;7.31;87.93
41106;BME280;74159;52.530;13.188;2024-03-02T07:40:08;100282.91;;;7.35;88.48
41106;BME280;74159;52.530;13.188;2024-03-02T07:42:38;100286.50;;;7.36;88.80
41106;BME280;74159;52.530;13.188;2024-03-02T07:45:04;100289.50;;;7.34;88.29
41106;BME280;74159;52.530;13.188;2024-03-02T07:47:30;100298.56;;;7.30;88.49
41106;BME280;74159;52.530;13.188;2024-03-02T07:49:55;100298.88;;;7.38;88.77
41106;BME280;74159;52.530;13.188;2024-03-02T07:52:21;100306.09;;;7.44;88.53
41106;BME280;74159;52.530;13.188;2024-03-02T07:54:46;100297.28;;;7.42;89.04
41106;BME280;74159;52.530;13.188;2024-03-02T07:57:11;100302.47;;;7.39;88.88
41106;BME280;74159;52.530;13.188;2024-03-02T07:59:37;100302.78;;;7.42;88.53
41106;BME280;74159;52.530;13.188;2024-03-02T08:02:03;100312.88;;;7.32;88.76
41106;BME280;74159;52.530;13.188;2024-03-02T08:04:28;100308.22;;;7.37;89.16
41106;BME280;74159;52.530;13.188;2024-03-02T08:06:54;100310.78;;;7.44;88.45
41106;BME280;74159;52.530;13.188;2024-03-02T08:09:20;100303.91;;;7.46;88.12
41106;BME280;74159;52.530;13.188;2024-03-02T08:11:45;100309.13;;;7.43;88.31
41106;BME280;74159;52.530;13.188;2024-03-02T08:14:10;100310.81;;;7.49;88.11
41106;BME280;74159;52.530;13.188;2024-03-02T08:16:36;100319.06;;;7.54;88.10
41106;BME280;74159;52.530;13.188;2024-03-02T08:19:01;100316.56;;;7.47;88.19
41106;BME280;74159;52.530;13.188;2024-03-02T08:21:27;100322.91;;;7.48;88.55
41106;BME280;74159;52.530;13.188;2024-03-02T08:23:56;100311.09;;;7.52;88.36
41106;BME280;74159;52.530;13.188;2024-03-02T08:26:22;100313.09;;;7.62;88.08
41106;BME280;74159;52.530;13.188;2024-03-02T08:28:47;100321.06;;;7.64;87.90
41106;BME280;74159;52.530;13.188;2024-03-02T08:31:12;100325.28;;;7.76;87.28
41106;BME280;74159;52.530;13.188;2024-03-02T08:33:38;100325.75;;;7.63;87.96
41106;BME280;74159;52.530;13.188;2024-03-02T08:36:04;100331.50;;;7.57;88.08
41106;BME280;74159;52.530;13.188;2024-03-02T08:38:29;100327.69;;;7.63;87.93
41106;BME280;74159;52.530;13.188;2024-03-02T08:40:55;100331.00;;;7.70;88.04
41106;BME280;74159;52.530;13.188;2024-03-02T08:43:20;100329.34;;;7.69;87.68
41106;BME280;74159;52.530;13.188;2024-03-02T08:45:47;100342.84;;;7.70;87.58
41106;BME280;74159;52.530;13.188;2024-03-02T08:48:13;100334.38;;;7.77;87.81
41106;BME280;74159;52.530;13.188;2024-03-02T08:50:38;100344.75;;;7.65;87.60
41106;BME280;74159;52.530;13.188;2024-03-02T08:53:04;100349.19;;;7.71;87.11
41106;BME280;74159;52.530;13.188;2024-03-02T08:55:30;100342.56;;;7.67;87.17
41106;BME280;74159;52.530;13.188;2024-03-02T08:57:55;100345.88;;;7.69;86.89
41106;BME280;74159;52.530;13.188;2024-03-02T09:00:21;100350.38;;;7.85;86.83
41106;BME280;74159;52.530;13.188;2024-03-02T09:02:47;100350.88;;;7.77;86.09
41106;BME280;74159;52.530;13.188;2024-03-02T09:05:13;100362.47;;;7.79;86.20
41106;BME280;74159;52.530;13.188;2024-03-02T09:07:38;100358.44;;;7.97;85.85
41106;BME280;74159;52.530;13.188;2024-03-02T09:10:05;100359.75;;;7.89;86.19
41106;BME280;74159;52.530;13.188;2024-03-02T09:12:31;100360.00;;;7.88;86.25
41106;BME280;74159;52.530;13.188;2024-03-02T09:14:56;100365.22;;;7.84;85.86
41106;BME280;74159;52.530;13.188;2024-03-02T09:17:23;100354.22;;;7.84;86.27
41106;BME280;74159;52.530;13.188;2024-03-02T09:19:48;100355.34;;;7.88;85.64
41106;BME280;74159;52.530;13.188;2024-03-02T09:22:13;100365.78;;;7.86;85.75
41106;BME280;74159;52.530;13.188;2024-03-02T09:24:39;100371.81;;;7.83;85.88
41106;BME280;74159;52.530;13.188;2024-03-02T09:27:04;100361.72;;;7.94;85.84
41106;BME280;74159;52.530;13.188;2024-03-02T09:29:31;100363.63;;;7.93;86.04
41106;BME280;74159;52.530;13.188;2024-03-02T09:31:56;100361.72;;;7.99;85.27
41106;BME280;74159;52.530;13.188;2024-03-02T09:34:21;100375.22;;;7.95;85.47
41106;BME280;74159;52.530;13.188;2024-03-02T09:36:47;100378.25;;;7.99;85.23
41106;BME280;74159;52.530;13.188;2024-03-02T09:39:13;100376.06;;;8.01;85.22
41106;BME280;74159;52.530;13.188;2024-03-02T09:41:38;100384.66;;;8.09;85.01
41106;BME280;74159;52.530;13.188;2024-03-02T09:44:05;100375.03;;;8.17;84.49
41106;BME280;74159;52.530;13.188;2024-03-02T09:46:31;100371.44;;;8.11;84.40
41106;BME280;74159;52.530;13.188;2024-03-02T09:48:56;100372.81;;;8.14;84.79
41106;BME280;74159;52.530;13.188;2024-03-02T09:51:22;100364.56;;;8.14;84.77
41106;BME280;74159;52.530;13.188;2024-03-02T09:53:48;100368.47;;;8.23;84.52
41106;BME280;74159;52.530;13.188;2024-03-02T09:56:14;100370.91;;;8.20;84.14
41106;BME280;74159;52.530;13.188;2024-03-02T09:58:41;100368.75;;;8.27;84.30
41106;BME280;74159;52.530;13.188;2024-03-02T10:01:07;100365.41;;;8.14;83.60
41106;BME280;74159;52.530;13.188;2024-03-02T10:03:33;100366.34;;;8.35;83.39
41106;BME280;74159;52.530;13.188;2024-03-02T10:06:27;100356.19;;;8.41;83.79
41106;BME280;74159;52.530;13.188;2024-03-02T10:08:53;100360.06;;;8.55;82.30
41106;BME280;74159;52.530;13.188;2024-03-02T10:11:30;100354.53;;;8.40;83.12
41106;BME280;74159;52.530;13.188;2024-03-02T10:16:38;100347.38;;;8.54;82.27
41106;BME280;74159;52.530;13.188;2024-03-02T10:19:23;100349.94;;;8.76;81.24
41106;BME280;74159;52.530;13.188;2024-03-02T10:21:49;100348.03;;;9.32;80.20
41106;BME280;74159;52.530;13.188;2024-03-02T10:24:18;100359.59;;;8.89;80.61
41106;BME280;74159;52.530;13.188;2024-03-02T10:26:44;100356.03;;;8.93;80.38
41106;BME280;74159;52.530;13.188;2024-03-02T10:29:10;100357.97;;;9.08;80.51
41106;BME280;74159;52.530;13.188;2024-03-02T10:31:37;100354.94;;;9.15;80.48
41106;BME280;74159;52.530;13.188;2024-03-02T10:34:03;100352.81;;;10.17;77.50
41106;BME280;74159;52.530;13.188;2024-03-02T10:36:29;100350.09;;;10.07;77.12
41106;BME280;74159;52.530;13.188;2024-03-02T10:38:56;100360.09;;;9.87;76.91
41106;BME280;74159;52.530;13.188;2024-03-02T10:41:26;100347.03;;;10.73;75.93
41106;BME280;74159;52.530;13.188;2024-03-02T10:43:56;100350.19;;;10.61;75.00
41106;BME280;74159;52.530;13.188;2024-03-02T10:46:36;100351.19;;;11.14;75.41
41106;BME280;74159;52.530;13.188;2024-03-02T10:49:04;100354.66;;;10.96;74.14
41106;BME280;74159;52.530;13.188;2024-03-02T10:51:31;100353.75;;;11.06;72.59
41106;BME280;74159;52.530;13.188;2024-03-02T10:54:02;100358.88;;;11.23;72.54
41106;BME280;74159;52.530;13.188;2024-03-02T10:59:03;100364.94;;;10.85;72.10
41106;BME280;74159;52.530;13.188;2024-03-02T11:01:30;100352.91;;;11.39;71.50
41106;BME280;74159;52.530;13.188;2024-03-02T11:03:57;100353.81;;;11.64;68.68
41106;BME280;74159;52.530;13.188;2024-03-02T11:06:23;100360.22;;;11.25;70.32
41106;BME280;74159;52.530;13.188;2024-03-02T11:08:53;100354.25;;;11.47;69.46
41106;BME280;74159;52.530;13.188;2024-03-02T11:11:28;100358.34;;;10.81;72.03
41106;BME280;74159;52.530;13.188;2024-03-02T11:13:56;100358.88;;;10.34;74.05
41106;BME280;74159;52.530;13.188;2024-03-02T11:16:34;100359.88;;;10.59;73.24
41106;BME280;74159;52.530;13.188;2024-03-02T11:19:03;100351.72;;;11.17;71.15
41106;BME280;74159;52.530;13.188;2024-03-02T11:21:28;100354.88;;;10.61;73.13
41106;BME280;74159;52.530;13.188;2024-03-02T11:23:54;100358.81;;;10.49;73.79
41106;BME280;74159;52.530;13.188;2024-03-02T11:26:21;100355.25;;;10.44;73.21
41106;BME280;74159;52.530;13.188;2024-03-02T11:28:48;100354.41;;;10.43;72.21
41106;BME280;74159;52.530;13.188;2024-03-02T11:31:14;100346.91;;;10.98;70.89
41106;BME280;74159;52.530;13.188;2024-03-02T11:33:39;100349.22;;;10.32;72.31
41106;BME280;74159;52.530;13.188;2024-03-02T11:36:08;100352.84;;;10.27;72.53
41106;BME280;74159;52.530;13.188;2024-03-02T11:38:34;100343.06;;;10.45;73.32
41106;BME280;74159;52.530;13.188;2024-03-02T11:41:06;100339.94;;;10.57;71.68
41106;BME280;74159;52.530;13.188;2024-03-02T11:43:37;100339.06;;;10.66;71.86
41106;BME280;74159;52.530;13.188;2024-03-02T11:46:05;100332.09;;;11.47;69.00
41106;BME280;74159;52.530;13.188;2024-03-02T11:48:35;100343.16;;;10.79;71.63
41106;BME280;74159;52.530;13.188;2024-03-02T11:51:02;100340.81;;;10.96;70.89
41106;BME280;74159;52.530;13.188;2024-03-02T11:53:28;100341.25;;;11.08;70.42
41106;BME280;74159;52.530;13.188;2024-03-02T11:56:01;100344.13;;;11.32;69.69
41106;BME280;74159;52.530;13.188;2024-03-02T11:58:27;100335.31;;;11.59;68.56
41106;BME280;74159;52.530;13.188;2024-03-02T12:00:54;100339.16;;;11.58;68.50
41106;BME280;74159;52.530;13.188;2024-03-02T12:03:22;100348.81;;;11.95;67.33
41106;BME280;74159;52.530;13.188;2024-03-02T12:05:49;100358.03;;;12.14;66.12
41106;BME280;74159;52.530;13.188;2024-03-02T12:08:15;100349.56;;;11.71;66.32
41106;BME280;74159;52.530;13.188;2024-03-02T12:10:40;100355.34;;;11.75;67.31
41106;BME280;74159;52.530;13.188;2024-03-02T12:13:07;100356.13;;;11.86;67.01
41106;BME280;74159;52.530;13.188;2024-03-02T12:15:36;100345.03;;;12.33;66.38
41106;BME280;74159;52.530;13.188;2024-03-02T12:18:02;100349.78;;;12.52;65.02
41106;BME280;74159;52.530;13.188;2024-03-02T12:20:29;100344.25;;;12.52;64.21
41106;BME280;74159;52.530;13.188;2024-03-02T12:22:59;100342.16;;;13.00;64.38
41106;BME280;74159;52.530;13.188;2024-03-02T12:25:26;100332.91;;;13.05;62.60
41106;BME280;74159;52.530;13.188;2024-03-02T12:27:56;100341.84;;;13.99;60.76
41106;BME280;74159;52.530;13.188;2024-03-02T12:30:22;100321.06;;;15.10;55.97
41106;BME280;74159;52.530;13.188;2024-03-02T12:32:48;100328.56;;;13.82;58.97
41106;BME280;74159;52.530;13.188;2024-03-02T12:35:14;100326.84;;;14.78;56.46
41106;BME280;74159;52.530;13.188;2024-03-02T12:37:51;100321.66;;;14.21;57.86
41106;BME280;74159;52.530;13.188;2024-03-02T12:40:19;100328.06;;;13.94;58.97
41106;BME280;74159;52.530;13.188;2024-03-02T12:42:46;100323.91;;;14.05;58.00
41106;BME280;74159;52.530;13.188;2024-03-02T12:45:12;100317.00;;;14.58;56.40
41106;BME280;74159;52.530;13.188;2024-03-02T12:47:39;100323.91;;;13.78;58.37
41106;BME280;74159;52.530;13.188;2024-03-02T12:50:05;100310.50;;;14.98;57.41
41106;BME280;74159;52.530;13.188;2024-03-02T12:52:31;100301.72;;;16.29;55.50
41106;BME280;74159;52.530;13.188;2024-03-02T12:55:01;100307.44;;;17.33;50.52
41106;BME280;74159;52.530;13.188;2024-03-02T12:57:29;100310.94;;;15.59;54.31